sensor_id;sensor_type;location;lat;lon;timestamp;pressure;altitude;pressure_sealevel;temperature;humidity
11190;BME280;5651;50.926;4.718;2023-04-24T00:01:34;100026.22;;;9.98;100.00
11190;BME280;5651;50.926;4.718;2023-04-24T00:04:02;100021.84;;;10.02;100.00
11190;BME280;5651;50.926;4.718;2023-04-24T00:06:29;100021.03;;;9.98;100.00
11190;BME280;5651;50.926;4.718;2023-04-24T00:09:02;100024.41;;;10.05;100.00
11190;BME280;5651;50.926;4.718;2023-04-24T00:11:29;100026.09;;;10.08;100.00
11190;BME280;5651;50.926;4.718;2023-04-24T00:13:56;100031.31;;;10.05;100.00
11190;BME280;5651;50.926;4.718;2023-04-24T00:16:22;100038.31;;;10.01;100.00
11190;BME280;5651;50.926;4.718;2023-04-24T00:18:48;100034.84;;;10.04;100.00
11190;BME280;5651;50.926;4.718;2023-04-24T00:21:15;100032.13;;;10.08;100.00
11190;BME280;5651;50.926;4.718;2023-04-24T00:23:43;100032.06;;;10.13;100.00
11190;BME280;5651;50.926;4.718;2023-04-24T00:26:09;100038.19;;;10.12;100.00
11190;BME280;5651;50.926;4.718;2023-04-24T00:28:35;100033.06;;;10.07;100.00
11190;BME280;5651;50.926;4.718;2023-04-24T00:31:01;100028.75;;;10.03;100.00
11190;BME280;5651;50.926;4.718;2023-04-24T00:33:27;100033.94;;;10.05;100.00
11190;BME280;5651;50.926;4.718;2023-04-24T00:35:53;100038.31;;;10.01;100.00
11190;BME280;5651;50.926;4.718;2023-04-24T00:38:19;100038.44;;;9.95;100.00
11190;BME280;5651;50.926;4.718;2023-04-24T00:40:45;100027.03;;;10.04;100.00
11190;BME280;5651;50.926;4.718;2023-04-24T00:43:11;100037.41;;;10.05;100.00
11190;BME280;5651;50.926;4.718;2023-04-24T00:45:37;100042.59;;;10.07;100.00
11190;BME280;5651;50.926;4.718;2023-04-24T00:48:03;100037.50;;;9.99;100.00
11190;BME280;5651;50.926;4.718;2023-04-24T00:50:29;100041.78;;;10.03;100.00
11190;BME280;5651;50.926;4.718;2023-04-24T00:52:57;100042.72;;;9.99;100.00
11190;BME280;5651;50.926;4.718;2023-04-24T00:55:22;100041.88;;;9.97;100.00
11190;BME280;5651;50.926;4.718;2023-04-24T00:57:50;100043.69;;;9.92;100.00
11190;BME280;5651;50.926;4.718;2023-04-24T01:00:17;100041.00;;;9.98;100.00
11190;BME280;5651;50.926;4.718;2023-04-24T01:02:45;100048.00;;;9.94;100.00
11190;BME280;5651;50.926;4.718;2023-04-24T01:05:12;100042.00;;;9.89;100.00
11190;BME280;5651;50.926;4.718;2023-04-24T01:07:40;100038.47;;;9.93;100.00
11190;BME280;5651;50.926;4.718;2023-04-24T01:10:10;100039.41;;;9.89;100.00
11190;BME280;5651;50.926;4.718;2023-04-24T01:12:36;100030.78;;;9.86;100.00
11190;BME280;5651;50.926;4.718;2023-04-24T01:15:03;100031.72;;;9.80;100.00
11190;BME280;5651;50.926;4.718;2023-04-24T01:17:29;100030.91;;;9.76;100.00
11190;BME280;5651;50.926;4.718;2023-04-24T01:19:56;100036.97;;;9.77;100.00
11190;BME280;5651;50.926;4.718;2023-04-24T01:22:22;100039.53;;;9.78;100.00
11190;BME280;5651;50.926;4.718;2023-04-24T01:24:48;100029.22;;;9.72;100.00
11190;BME280;5651;50.926;4.718;2023-04-24T01:27:14;100026.69;;;9.67;100.00
11190;BME280;5651;50.926;4.718;2023-04-24T01:29:40;100027.47;;;9.74;100.00
11190;BME280;5651;50.926;4.718;2023-04-24T01:32:07;100029.13;;;9.78;100.00
11190;BME280;5651;50.926;4.718;2023-04-24T01:34:33;100032.63;;;9.77;100.00
11190;BME280;5651;50.926;4.718;2023-04-24T01:36:59;100036.97;;;9.77;100.00
11190;BME280;5651;50.926;4.718;2023-04-24T01:39:26;100033.56;;;9.72;100.00
11190;BME280;5651;50.926;4.718;2023-04-24T01:41:54;100035.34;;;9.70;100.00
11190;BME280;5651;50.926;4.718;2023-04-24T01:44:21;100034.41;;;9.75;100.00
11190;BME280;5651;50.926;4.718;2023-04-24T01:46:47;100036.13;;;9.76;100.00
11190;BME280;5651;50.926;4.718;2023-04-24T01:49:13;100038.78;;;9.72;100.00
11190;BME280;5651;50.926;4.718;2023-04-24T01:51:39;100043.88;;;9.78;100.00
11190;BME280;5651;50.926;4.718;2023-04-24T01:54:05;100031.88;;;9.69;100.00
11190;BME280;5651;50.926;4.718;2023-04-24T01:56:33;100037.06;;;9.71;100.00
11190;BME280;5651;50.926;4.718;2023-04-24T01:58:59;100040.56;;;9.68;100.00
11190;BME280;5651;50.926;4.718;2023-04-24T02:01:26;100034.41;;;9.75;100.00
11190;BME280;5651;50.926;4.718;2023-04-24T02:03:51;100045.69;;;9.74;100.00
11190;BME280;5651;50.926;4.718;2023-04-24T02:06:17;100041.56;;;9.58;100.00
11190;BME280;5651;50.926;4.718;2023-04-24T02:08:43;100042.44;;;9.57;100.00
11190;BME280;5651;50.926;4.718;2023-04-24T02:11:09;100047.56;;;9.64;100.00
11190;BME280;5651;50.926;4.718;2023-04-24T02:13:35;100046.66;;;9.64;100.00
11190;BME280;5651;50.926;4.718;2023-04-24T02:16:01;100049.34;;;9.61;100.00
11190;BME280;5651;50.926;4.718;2023-04-24T02:18:29;100048.53;;;9.54;100.00
11190;BME280;5651;50.926;4.718;2023-04-24T02:20:55;100042.41;;;9.60;100.00
11190;BME280;5651;50.926;4.718;2023-04-24T02:23:21;100044.28;;;9.48;100.00
11190;BME280;5651;50.926;4.718;2023-04-24T02:25:47;100046.06;;;9.45;100.00
11190;BME280;5651;50.926;4.718;2023-04-24T02:28:13;100046.03;;;9.48;100.00
11190;BME280;5651;50.926;4.718;2023-04-24T02:30:39;100044.38;;;9.44;100.00
11190;BME280;5651;50.926;4.718;2023-04-24T02:33:05;100047.78;;;9.47;100.00
11190;BME280;5651;50.926;4.718;2023-04-24T02:35:30;100041.75;;;9.42;100.00
11190;BME280;5651;50.926;4.718;2023-04-24T02:37:56;100047.81;;;9.44;100.00
11190;BME280;5651;50.926;4.718;2023-04-24T02:40:22;100045.22;;;9.44;100.00
11190;BME280;5651;50.926;4.718;2023-04-24T02:42:48;100051.22;;;9.51;100.00
11190;BME280;5651;50.926;4.718;2023-04-24T02:45:14;100047.81;;;9.44;100.00
11190;BME280;5651;50.926;4.718;2023-04-24T02:47:39;100049.47;;;9.48;100.00
11190;BME280;5651;50.926;4.718;2023-04-24T02:50:06;100040.88;;;9.46;100.00
11190;BME280;5651;50.926;4.718;2023-04-24T02:52:32;100040.88;;;9.43;100.00
11190;BME280;5651;50.926;4.718;2023-04-24T02:54:58;100059.09;;;9.43;100.00
11190;BME280;5651;50.926;4.718;2023-04-24T02:57:24;100054.88;;;9.34;100.00
11190;BME280;5651;50.926;4.718;2023-04-24T02:59:50;100050.50;;;9.38;100.00
11190;BME280;5651;50.926;4.718;2023-04-24T03:02:15;100048.84;;;9.31;100.00
11190;BME280;5651;50.926;4.718;2023-04-24T03:04:41;100048.84;;;9.29;100.00
11190;BME280;5651;50.926;4.718;2023-04-24T03:07:11;100052.31;;;9.31;100.00
11190;BME280;5651;50.926;4.718;2023-04-24T03:09:37;100055.78;;;9.32;100.00
11190;BME280;5651;50.926;4.718;2023-04-24T03:12:02;100051.44;;;9.29;100.00
11190;BME280;5651;50.926;4.718;2023-04-24T03:14:28;100056.63;;;9.32;100.00
11190;BME280;5651;50.926;4.718;2023-04-24T03:16:57;100050.63;;;9.27;100.00
11190;BME280;5651;50.926;4.718;2023-04-24T03:19:23;100057.63;;;9.20;100.00
11190;BME280;5651;50.926;4.718;2023-04-24T03:21:49;100055.91;;;9.21;100.00
11190;BME280;5651;50.926;4.718;2023-04-24T03:24:15;100058.47;;;9.23;100.00
11190;BME280;5651;50.926;4.718;2023-04-24T03:26:41;100057.56;;;9.27;100.00
11190;BME280;5651;50.926;4.718;2023-04-24T03:29:07;100055.91;;;9.19;100.00
11190;BME280;5651;50.926;4.718;2023-04-24T03:31:33;100059.41;;;9.17;100.00
11190;BME280;5651;50.926;4.718;2023-04-24T03:33:59;100055.03;;;9.20;100.00
11190;BME280;5651;50.926;4.718;2023-04-24T03:36:24;100058.47;;;9.23;100.00
11190;BME280;5651;50.926;4.718;2023-04-24T03:38:51;100056.84;;;9.15;100.00
11190;BME280;5651;50.926;4.718;2023-04-24T03:41:17;100056.75;;;9.22;100.00
11190;BME280;5651;50.926;4.718;2023-04-24T03:43:43;100061.16;;;9.16;100.00
11190;BME280;5651;50.926;4.718;2023-04-24T03:46:09;100053.31;;;9.19;100.00
11190;BME280;5651;50.926;4.718;2023-04-24T03:48:35;100062.94;;;9.13;100.00
11190;BME280;5651;50.926;4.718;2023-04-24T03:51:01;100068.19;;;9.08;100.00
11190;BME280;5651;50.926;4.718;2023-04-24T03:53:27;100074.31;;;9.01;100.00
11190;BME280;5651;50.926;4.718;2023-04-24T03:55:53;100088.97;;;9.08;100.00
11190;BME280;5651;50.926;4.718;2023-04-24T03:58:19;100082.94;;;9.04;100.00
11190;BME280;5651;50.926;4.718;2023-04-24T04:00:45;100089.91;;;9.01;100.00
11190;BME280;5651;50.926;4.718;2023-04-24T04:03:13;100085.50;;;9.09;100.00
11190;BME280;5651;50.926;4.718;2023-04-24T04:05:40;100086.41;;;9.03;100.00
11190;BME280;5651;50.926;4.718;2023-04-24T04:08:06;100091.69;;;8.96;100.00
11190;BME280;5651;50.926;4.718;2023-04-24T04:10:31;100092.47;;;9.04;100.00
11190;BME280;5651;50.926;4.718;2023-04-24T04:12:57;100094.28;;;8.96;100.00
11190;BME280;5651;50.926;4.718;2023-04-24T04:15:23;100108.13;;;8.98;100.00
11190;BME280;5651;50.926;4.718;2023-04-24T04:17:49;100112.53;;;8.91;100.00
11190;BME280;5651;50.926;4.718;2023-04-24T04:20:15;100117.66;;;8.96;100.00
11190;BME280;5651;50.926;4.718;2023-04-24T04:22:41;100114.09;;;9.06;100.00
11190;BME280;5651;50.926;4.718;2023-04-24T04:25:07;100118.38;;;9.10;100.00
11190;BME280;5651;50.926;4.718;2023-04-24T04:27:34;100115.91;;;9.01;100.00
11190;BME280;5651;50.926;4.718;2023-04-24T04:30:01;100122.81;;;9.02;100.00
11190;BME280;5651;50.926;4.718;2023-04-24T04:32:34;100128.00;;;9.00;100.00
11190;BME280;5651;50.926;4.718;2023-04-24T04:35:00;100130.63;;;8.99;100.00
11190;BME280;5651;50.926;4.718;2023-04-24T04:37:30;100126.22;;;9.09;100.00
11190;BME280;5651;50.926;4.718;2023-04-24T04:39:57;100135.72;;;9.13;100.00
11190;BME280;5651;50.926;4.718;2023-04-24T04:42:26;100142.66;;;9.11;100.00
11190;BME280;5651;50.926;4.718;2023-04-24T04:44:55;100149.66;;;9.06;100.00
11190;BME280;5651;50.926;4.718;2023-04-24T04:47:22;100145.28;;;9.08;100.00
11190;BME280;5651;50.926;4.718;2023-04-24T04:49:49;100150.47;;;9.09;100.00
11190;BME280;5651;50.926;4.718;2023-04-24T04:52:16;100160.88;;;9.06;100.00
11190;BME280;5651;50.926;4.718;2023-04-24T04:54:43;100164.34;;;9.07;100.00
11190;BME280;5651;50.926;4.718;2023-04-24T04:57:09;100176.50;;;9.04;100.00
11190;BME280;5651;50.926;4.718;2023-04-24T04:59:35;100177.28;;;9.14;100.00
11190;BME280;5651;50.926;4.718;2023-04-24T05:02:02;100191.19;;;9.09;100.00
11190;BME280;5651;50.926;4.718;2023-04-24T05:04:28;100204.16;;;9.12;100.00
11190;BME280;5651;50.926;4.718;2023-04-24T05:06:54;100190.28;;;9.11;100.00
11190;BME280;5651;50.926;4.718;2023-04-24T05:09:20;100208.47;;;9.11;100.00
11190;BME280;5651;50.926;4.718;2023-04-24T05:11:46;100199.84;;;9.11;100.00
11190;BME280;5651;50.926;4.718;2023-04-24T05:14:12;100212.81;;;9.11;100.00
11190;BME280;5651;50.926;4.718;2023-04-24T05:16:39;100223.25;;;9.09;100.00
11190;BME280;5651;50.926;4.718;2023-04-24T05:19:05;100230.16;;;9.12;100.00
11190;BME280;5651;50.926;4.718;2023-04-24T05:21:31;100230.13;;;9.13;100.00
11190;BME280;5651;50.926;4.718;2023-04-24T05:23:57;100240.59;;;9.06;100.00
11190;BME280;5651;50.926;4.718;2023-04-24T05:26:23;100242.34;;;9.00;100.00
11190;BME280;5651;50.926;4.718;2023-04-24T05:28:49;100243.22;;;9.02;100.00
11190;BME280;5651;50.926;4.718;2023-04-24T05:31:15;100243.16;;;9.09;100.00
11190;BME280;5651;50.926;4.718;2023-04-24T05:33:43;100249.25;;;9.03;100.00
11190;BME280;5651;50.926;4.718;2023-04-24T05:36:09;100267.44;;;9.09;100.00
11190;BME280;5651;50.926;4.718;2023-04-24T05:38:34;100264.88;;;9.01;100.00
11190;BME280;5651;50.926;4.718;2023-04-24T05:41:00;100276.16;;;8.96;100.00
11190;BME280;5651;50.926;4.718;2023-04-24T05:43:29;100278.78;;;8.97;100.00
11190;BME280;5651;50.926;4.718;2023-04-24T05:46:01;100288.31;;;8.95;100.00
11190;BME280;5651;50.926;4.718;2023-04-24T05:48:27;100294.34;;;8.96;100.00
11190;BME280;5651;50.926;4.718;2023-04-24T05:50:52;100307.38;;;8.97;100.00
11190;BME280;5651;50.926;4.718;2023-04-24T05:53:18;100309.97;;;8.97;100.00
11190;BME280;5651;50.926;4.718;2023-04-24T05:55:45;100313.41;;;8.98;100.00
11190;BME280;5651;50.926;4.718;2023-04-24T05:58:11;100310.84;;;8.95;100.00
11190;BME280;5651;50.926;4.718;2023-04-24T06:00:37;100320.41;;;8.91;100.00
11190;BME280;5651;50.926;4.718;2023-04-24T06:03:05;100318.66;;;8.88;100.00
11190;BME280;5651;50.926;4.718;2023-04-24T06:05:31;100329.91;;;8.92;100.00
11190;BME280;5651;50.926;4.718;2023-04-24T06:07:58;100337.59;;;9.08;100.00
11190;BME280;5651;50.926;4.718;2023-04-24T06:10:24;100338.50;;;9.03;100.00
11190;BME280;5651;50.926;4.718;2023-04-24T06:12:49;100343.75;;;8.94;100.00
11190;BME280;5651;50.926;4.718;2023-04-24T06:15:15;100345.41;;;9.06;100.00
11190;BME280;5651;50.926;4.718;2023-04-24T06:17:41;100345.44;;;9.00;100.00
11190;BME280;5651;50.926;4.718;2023-04-24T06:20:07;100359.25;;;9.07;100.00
11190;BME280;5651;50.926;4.718;2023-04-24T06:22:33;100364.50;;;8.99;100.00
11190;BME280;5651;50.926;4.718;2023-04-24T06:24:59;100369.66;;;9.05;100.00
11190;BME280;5651;50.926;4.718;2023-04-24T06:27:26;100374.06;;;8.98;100.00
11190;BME280;5651;50.926;4.718;2023-04-24T06:29:52;100368.84;;;9.00;100.00
11190;BME280;5651;50.926;4.718;2023-04-24T06:32:24;100375.75;;;8.99;100.00
11190;BME280;5651;50.926;4.718;2023-04-24T06:34:52;100380.09;;;8.99;100.00
11190;BME280;5651;50.926;4.718;2023-04-24T06:37:19;100381.84;;;8.97;100.00
11190;BME280;5651;50.926;4.718;2023-04-24T06:39:46;100400.06;;;8.94;100.00
11190;BME280;5651;50.926;4.718;2023-04-24T06:42:12;100391.38;;;8.96;100.00
11190;BME280;5651;50.926;4.718;2023-04-24T06:44:38;100397.44;;;8.97;100.00
11190;BME280;5651;50.926;4.718;2023-04-24T06:47:10;100392.22;;;9.01;100.00
11190;BME280;5651;50.926;4.718;2023-04-24T06:49:37;100397.38;;;9.06;100.00
11190;BME280;5651;50.926;4.718;2023-04-24T06:52:03;100402.66;;;8.94;100.00
11190;BME280;5651;50.926;4.718;2023-04-24T06:54:29;100401.75;;;9.06;100.00
11190;BME280;5651;50.926;4.718;2023-04-24T06:56:55;100401.75;;;9.02;100.00
11190;BME280;5651;50.926;4.718;2023-04-24T06:59:23;100403.50;;;8.97;100.00
11190;BME280;5651;50.926;4.718;2023-04-24T07:01:49;100403.44;;;9.08;100.00
11190;BME280;5651;50.926;4.718;2023-04-24T07:04:17;100407.75;;;9.15;100.00
11190;BME280;5651;50.926;4.718;2023-04-24T07:06:43;100423.31;;;9.17;100.00
11190;BME280;5651;50.926;4.718;2023-04-24T07:09:09;100436.38;;;9.04;100.00
11190;BME280;5651;50.926;4.718;2023-04-24T07:11:35;100432.06;;;9.00;100.00
11190;BME280;5651;50.926;4.718;2023-04-24T07:14:02;100438.09;;;9.04;100.00
11190;BME280;5651;50.926;4.718;2023-04-24T07:16:28;100437.19;;;9.14;100.00
11190;BME280;5651;50.926;4.718;2023-04-24T07:18:54;100437.13;;;9.27;100.00
11190;BME280;5651;50.926;4.718;2023-04-24T07:21:20;100445.81;;;9.24;100.00
11190;BME280;5651;50.926;4.718;2023-04-24T07:23:45;100451.84;;;9.31;100.00
11190;BME280;5651;50.926;4.718;2023-04-24T07:26:12;100452.69;;;9.33;100.00
11190;BME280;5651;50.926;4.718;2023-04-24T07:28:38;100467.44;;;9.29;100.00
11190;BME280;5651;50.926;4.718;2023-04-24T07:31:03;100473.47;;;9.36;100.00
11190;BME280;5651;50.926;4.718;2023-04-24T07:33:29;100471.75;;;9.33;100.00
11190;BME280;5651;50.926;4.718;2023-04-24T07:35:55;100472.59;;;9.34;100.00
11190;BME280;5651;50.926;4.718;2023-04-24T07:38:22;100491.69;;;9.36;100.00
11190;BME280;5651;50.926;4.718;2023-04-24T07:40:48;100495.09;;;9.46;100.00
11190;BME280;5651;50.926;4.718;2023-04-24T07:43:14;100489.91;;;9.47;100.00
11190;BME280;5651;50.926;4.718;2023-04-24T07:45:41;100488.16;;;9.46;100.00
11190;BME280;5651;50.926;4.718;2023-04-24T07:48:08;100498.53;;;9.52;100.00
11190;BME280;5651;50.926;4.718;2023-04-24T07:50:34;100506.28;;;9.56;100.00
11190;BME280;5651;50.926;4.718;2023-04-24T07:53:02;100515.84;;;9.55;100.00
11190;BME280;5651;50.926;4.718;2023-04-24T07:55:27;100509.78;;;9.56;100.00
11190;BME280;5651;50.926;4.718;2023-04-24T07:57:53;100507.19;;;9.55;100.00
11190;BME280;5651;50.926;4.718;2023-04-24T08:00:20;100514.16;;;9.51;100.00
11190;BME280;5651;50.926;4.718;2023-04-24T08:02:46;100524.56;;;9.46;100.00
11190;BME280;5651;50.926;4.718;2023-04-24T08:05:11;100525.44;;;9.42;100.00
11190;BME280;5651;50.926;4.718;2023-04-24T08:07:38;100532.34;;;9.48;100.00
11190;BME280;5651;50.926;4.718;2023-04-24T08:10:04;100532.34;;;9.51;100.00
11190;BME280;5651;50.926;4.718;2023-04-24T08:12:30;100542.72;;;9.56;100.00
11190;BME280;5651;50.926;4.718;2023-04-24T08:14:56;100548.75;;;9.62;100.00
11190;BME280;5651;50.926;4.718;2023-04-24T08:17:23;100550.44;;;9.70;100.00
11190;BME280;5651;50.926;4.718;2023-04-24T08:19:49;100554.75;;;9.75;100.00
11190;BME280;5651;50.926;4.718;2023-04-24T08:22:17;100558.13;;;9.90;100.00
11190;BME280;5651;50.926;4.718;2023-04-24T08:24:43;100556.38;;;9.90;100.00
11190;BME280;5651;50.926;4.718;2023-04-24T08:27:09;100562.41;;;10.00;100.00
11190;BME280;5651;50.926;4.718;2023-04-24T08:29:36;100569.34;;;10.03;100.00
11190;BME280;5651;50.926;4.718;2023-04-24T08:32:02;100570.13;;;10.15;100.00
11190;BME280;5651;50.926;4.718;2023-04-24T08:34:28;100568.25;;;10.31;100.00
11190;BME280;5651;50.926;4.718;2023-04-24T08:36:54;100572.56;;;10.37;100.00
11190;BME280;5651;50.926;4.718;2023-04-24T08:39:20;100586.38;;;10.49;100.00
11190;BME280;5651;50.926;4.718;2023-04-24T08:41:48;100580.34;;;10.43;100.00
11190;BME280;5651;50.926;4.718;2023-04-24T08:44:13;100581.97;;;10.55;100.00
11190;BME280;5651;50.926;4.718;2023-04-24T08:46:43;100581.03;;;10.62;100.00
11190;BME280;5651;50.926;4.718;2023-04-24T08:49:12;100581.81;;;10.72;100.00
11190;BME280;5651;50.926;4.718;2023-04-24T08:51:39;100576.47;;;10.85;100.00
11190;BME280;5651;50.926;4.718;2023-04-24T08:54:05;100595.53;;;10.88;100.00
11190;BME280;5651;50.926;4.718;2023-04-24T08:56:34;100584.09;;;11.03;100.00
11190;BME280;5651;50.926;4.718;2023-04-24T08:59:04;100586.41;;;11.31;100.00
11190;BME280;5651;50.926;4.718;2023-04-24T09:01:32;100583.63;;;11.45;100.00
11190;BME280;5651;50.926;4.718;2023-04-24T09:04:01;100593.19;;;11.46;100.00
11190;BME280;5651;50.926;4.718;2023-04-24T09:06:28;100576.66;;;11.47;100.00
11190;BME280;5651;50.926;4.718;2023-04-24T09:08:54;100592.63;;;11.18;100.00
11190;BME280;5651;50.926;4.718;2023-04-24T09:11:22;100590.97;;;11.10;100.00
11190;BME280;5651;50.926;4.718;2023-04-24T09:13:51;100608.38;;;11.12;100.00
11190;BME280;5651;50.926;4.718;2023-04-24T09:16:16;100611.78;;;11.15;100.00
11190;BME280;5651;50.926;4.718;2023-04-24T09:18:43;100628.50;;;10.94;100.00
11190;BME280;5651;50.926;4.718;2023-04-24T09:21:09;100627.78;;;10.83;100.00
11190;BME280;5651;50.926;4.718;2023-04-24T09:23:35;100629.47;;;10.87;100.00
11190;BME280;5651;50.926;4.718;2023-04-24T09:26:02;100633.84;;;10.82;100.00
11190;BME280;5651;50.926;4.718;2023-04-24T09:31:08;100635.47;;;10.92;100.00
11190;BME280;5651;50.926;4.718;2023-04-24T09:33:35;100637.91;;;11.12;100.00
11190;BME280;5651;50.926;4.718;2023-04-24T09:36:02;100637.72;;;11.29;100.00
11190;BME280;5651;50.926;4.718;2023-04-24T09:41:02;100632.09;;;11.63;100.00
11190;BME280;5651;50.926;4.718;2023-04-24T09:43:29;100638.19;;;11.65;100.00
11190;BME280;5651;50.926;4.718;2023-04-24T09:45:57;100630.22;;;11.74;100.00
11190;BME280;5651;50.926;4.718;2023-04-24T09:48:35;100645.38;;;11.46;100.00
11190;BME280;5651;50.926;4.718;2023-04-24T09:51:03;100647.81;;;11.62;100.00
11190;BME280;5651;50.926;4.718;2023-04-24T09:53:30;100652.25;;;11.52;100.00
11190;BME280;5651;50.926;4.718;2023-04-24T09:56:02;100649.50;;;11.64;100.00
11190;BME280;5651;50.926;4.718;2023-04-24T09:58:28;100655.50;;;11.71;100.00
11190;BME280;5651;50.926;4.718;2023-04-24T10:00:55;100656.31;;;11.76;100.00
11190;BME280;5651;50.926;4.718;2023-04-24T10:03:25;100652.53;;;12.00;100.00
11190;BME280;5651;50.926;4.718;2023-04-24T10:05:52;100659.47;;;12.04;100.00
11190;BME280;5651;50.926;4.718;2023-04-24T10:08:19;100672.28;;;12.20;100.00
11190;BME280;5651;50.926;4.718;2023-04-24T10:10:45;100668.84;;;12.18;99.52
11190;BME280;5651;50.926;4.718;2023-04-24T10:13:12;100667.81;;;12.28;99.80
11190;BME280;5651;50.926;4.718;2023-04-24T10:15:40;100671.06;;;12.46;100.00
11190;BME280;5651;50.926;4.718;2023-04-24T10:18:07;100662.41;;;12.42;97.69
11190;BME280;5651;50.926;4.718;2023-04-24T10:20:35;100672.03;;;12.39;96.87
11190;BME280;5651;50.926;4.718;2023-04-24T10:23:01;100682.50;;;12.35;97.18
11190;BME280;5651;50.926;4.718;2023-04-24T10:25:30;100673.72;;;12.41;98.73
11190;BME280;5651;50.926;4.718;2023-04-24T10:27:57;100685.91;;;12.42;98.29
11190;BME280;5651;50.926;4.718;2023-04-24T10:30:30;100692.09;;;12.36;96.18
11190;BME280;5651;50.926;4.718;2023-04-24T10:32:56;100682.28;;;12.51;98.69
11190;BME280;5651;50.926;4.718;2023-04-24T10:35:22;100691.75;;;12.60;91.93
11190;BME280;5651;50.926;4.718;2023-04-24T10:37:59;100698.72;;;12.61;96.08
11190;BME280;5651;50.926;4.718;2023-04-24T10:40:30;100698.91;;;12.47;94.91
11190;BME280;5651;50.926;4.718;2023-04-24T10:42:56;100701.41;;;12.56;94.71
11190;BME280;5651;50.926;4.718;2023-04-24T10:45:23;100709.25;;;12.55;93.68
11190;BME280;5651;50.926;4.718;2023-04-24T10:48:03;100715.88;;;12.77;95.11
11190;BME280;5651;50.926;4.718;2023-04-24T10:50:42;100709.53;;;12.92;96.59
11190;BME280;5651;50.926;4.718;2023-04-24T10:53:16;100719.31;;;12.79;93.51
11190;BME280;5651;50.926;4.718;2023-04-24T10:58:11;100717.34;;;12.94;92.60
